Station: Macquarie Island  

  Atmospheric Gas Attenuation - ITU Rec 676-11   ----------------- dB/100km -----------------
Date Time Temp RH % AH g/m3 Dew Point Wind Direction Speed kph Gust kph Barometer mB Rainfall Since 9am 24GHz 47GHz 76GHz 122GHz 134GHz 241GHz
03/05 09:30 6.7 91 6.92 5.3 30 33 1007.6 0 16.3 25.0 36.1 94.6 83.8 286.5
03/05 09:20 6.6 91 6.87 5.2 32 33 1007.6 0 16.2 24.9 36.0 94.2 83.2 284.5
03/05 09:10 6.7 91 6.92 5.3 32 33 1007.7 0 16.3 25.0 36.1 94.6 83.8 286.5
03/05 09:00 6.7 91 6.92 5.3 26 30 1007.8 0 16.3 25.0 36.1 94.6 83.8 286.6
03/05 08:50 6.5 91 6.83 5.1 32 33 1007.9 10 16.1 24.9 35.8 93.9 82.8 283.0
03/05 08:40 6.5 91 6.83 5.1 33 35 1008 10 16.1 24.9 35.8 93.9 82.8 283.1
03/05 08:30 6.5 91 6.83 5.1 32 35 1007.9 10 16.1 24.9 35.8 93.9 82.8 283.0
03/05 08:20 6.5 91 6.83 5.1 30 33 1008 10 16.1 24.9 35.8 93.9 82.8 283.1
03/05 08:10 6.4 92 6.86 5.2 28 33 1007.9 10 16.2 25.0 36.0 94.4 83.3 284.8
03/05 08:00 6.4 92 6.86 5.2 30 37 1007.9 10 16.2 25.0 36.0 94.4 83.3 284.8
03/05 07:50 6.4 92 6.86 5.2 30 32 1007.8 10 16.2 24.9 36.0 94.3 83.3 284.8
03/05 07:40 6.4 92 6.86 5.2 28 32 1007.9 10 16.2 25.0 36.0 94.4 83.3 284.8
03/05 07:30 6.3 92 6.81 5.1 33 41 1007.8 10 16.1 24.9 35.8 93.9 82.8 282.8
03/05 07:20 6.5 92 6.9 5.3 33 39 1008 10 16.3 25.0 36.1 94.7 83.8 286.4
03/05 07:10 6.5 92 6.9 5.3 35 41 1007.9 10 16.3 25.0 36.1 94.7 83.8 286.4
03/05 07:00 6.5 92 6.9 5.3 35 43 1007.5 10 16.3 25.0 36.1 94.6 83.8 286.3
03/05 06:50 6.5 93 6.98 5.5 35 39 1007.6 10 16.4 25.1 36.5 95.5 84.9 290.1
03/05 06:40 6.5 93 6.98 5.5 35 37 1007.7 10 16.4 25.1 36.5 95.5 84.9 290.2
03/05 06:30 6.5 92 6.9 5.3 35 44 1007.6 10 16.3 25.0 36.1 94.6 83.8 286.3
03/05 06:20 6.6 93 7.02 5.6 35 37 1007.5 10 16.5 25.1 36.6 95.8 85.3 291.6
03/05 06:10 6.5 93 6.98 5.5 35 43 1007.3 10 16.4 25.1 36.4 95.5 84.8 290.1
03/05 06:00 6.5 92 6.9 5.3 39 46 1007.3 10 16.3 25.0 36.1 94.6 83.7 286.2
03/05 05:50 6.5 93 6.98 5.5 39 41 1007.5 10 16.4 25.1 36.4 95.5 84.8 290.1
03/05 05:40 6.5 93 6.98 5.5 39 43 1007.3 10 16.4 25.1 36.4 95.5 84.8 290.1
03/05 05:30 6.5 93 6.98 5.5 39 48 1007.2 10 16.4 25.1 36.4 95.5 84.8 290.0
03/05 05:20 6.4 93 6.93 5.4 41 44 1007 10 16.3 25.0 36.3 95.0 84.2 288.0
03/05 05:10 6.4 94 7.01 5.5 35 41 1006.9 10 16.5 25.2 36.6 95.9 85.3 291.8
03/05 05:00 6.4 94 7.01 5.5 35 44 1006.7 10 16.5 25.2 36.6 95.9 85.3 291.7
03/05 04:50 6.5 94 7.05 5.6 35 41 1006.6 10 16.6 25.2 36.7 96.2 85.7 293.2
03/05 04:40 6.5 94 7.05 5.6 30 39 1006.7 10 16.6 25.2 36.7 96.2 85.7 293.3
03/05 04:30 6.5 94 7.05 5.6 37 48 1006.8 10 16.6 25.2 36.7 96.2 85.7 293.3
03/05 04:20 6.5 94 7.05 5.6 39 43 1006.6 10 16.6 25.2 36.7 96.2 85.7 293.2
03/05 04:10 6.5 95 7.13 5.8 32 35 1006.6 10 16.8 25.3 37.0 97.1 86.8 297.1
03/05 04:00 6.5 95 7.13 5.8 35 46 1006.6 10 16.8 25.3 37.0 97.1 86.8 297.1
03/05 03:50 6.6 95 7.18 5.9 39 43 1006.5 10 16.9 25.4 37.2 97.5 87.4 299.1
03/05 03:40 6.6 95 7.18 5.9 41 50 1006.4 10 16.9 25.4 37.2 97.5 87.4 299.1
03/05 03:30 6.7 95 7.22 6 35 50 1006.5 10 17.0 25.4 37.3 97.8 87.8 300.6
03/05 03:20 6.8 96 7.35 6.2 33 39 1006 10 17.2 25.6 37.8 99.1 89.5 306.4
03/05 03:10 6.9 96 7.39 6.3 37 44 1005.9 10 17.3 25.6 37.9 99.4 89.9 307.9
03/05 03:00 7 97 7.52 6.6 35 48 1005.8 10 17.6 25.8 38.4 100.7 91.6 313.8
03/05 02:50 7.1 97 7.57 6.7 35 43 1005.7 10 17.7 25.9 38.5 101.2 92.1 315.8
03/05 02:40 7.2 97 7.62 6.8 37 43 1005.5 10 17.8 25.9 38.7 101.6 92.7 317.7
03/05 02:30 7.3 97 7.67 6.9 39 50 1005.5 10 17.9 26.0 38.9 102.0 93.3 319.7
03/05 02:20 7.3 97 7.67 6.9 41 50 1005.2 10 17.9 25.9 38.8 102.0 93.2 319.7
03/05 02:10 7.3 97 7.67 6.9 37 44 1005.2 10 17.9 25.9 38.8 102.0 93.2 319.7
03/05 02:00 7.4 97 7.72 7 43 52 1004.9 10 18.0 26.0 39.0 102.4 93.8 321.6
03/05 01:50 7.4 97 7.72 7 44 50 1004.6 10 18.0 26.0 39.0 102.3 93.8 321.5
03/05 01:40 7.5 97 7.77 7.1 46 52 1004.7 10 18.1 26.0 39.1 102.8 94.3 323.6
03/05 01:30 7.6 97 7.82 7.2 50 61 1004.6 10 18.2 26.1 39.3 103.2 94.9 325.5
03/05 01:20 7.6 97 7.82 7.2 50 63 1004.2 10 18.2 26.1 39.3 103.2 94.9 325.4
03/05 01:10 7.7 97 7.87 7.3 54 63 1004 10 18.3 26.1 39.4 103.6 95.4 327.4
03/05 01:00 7.6 97 7.82 7.2 50 61 1003.6 10 18.2 26.1 39.3 103.1 94.8 325.3
03/05 00:50 7.7 97 7.87 7.3 54 59 1003.5 10 18.3 26.1 39.4 103.5 95.4 327.3
03/05 00:40 7.7 97 7.87 7.3 46 54 1003.3 10 18.3 26.1 39.4 103.5 95.4 327.2
03/05 00:30 7.8 97 7.92 7.4 56 67 1003 10 18.4 26.1 39.6 103.9 95.9 329.1
03/05 00:20 7.8 97 7.92 7.4 54 59 1002.9 10 18.4 26.1 39.5 103.9 95.9 329.1
03/05 00:10 7.8 97 7.92 7.4 52 61 1002.6 10 18.4 26.1 39.5 103.9 95.9 329.0
03/05 00:00 7.8 97 7.92 7.4 54 63 1002.4 10 18.4 26.1 39.5 103.8 95.9 329.0
02/05 23:50 7.8 97 7.92 7.4 54 59 1002.1 10 18.4 26.1 39.5 103.8 95.8 328.9
02/05 23:40 7.8 97 7.92 7.4 50 57 1002 10 18.4 26.1 39.5 103.8 95.8 328.9
02/05 23:30 7.9 97 7.97 7.5 54 67 1001.8 10 18.5 26.1 39.7 104.2 96.4 330.8
02/05 23:20 8 97 8.02 7.6 56 61 1001.9 10 18.6 26.2 39.8 104.6 97.0 332.8
02/05 23:10 8 97 8.02 7.6 56 61 1001.7 10 18.6 26.2 39.8 104.6 97.0 332.8
02/05 23:00 8.1 97 8.07 7.7 57 63 1001.7 10 18.7 26.3 40.0 105.0 97.5 334.8
02/05 22:50 8.1 97 8.07 7.7 57 63 1001.4 10 18.7 26.2 40.0 105.0 97.5 334.7
02/05 22:40 8.1 97 8.07 7.7 54 65 1001.2 10 18.7 26.2 40.0 105.0 97.5 334.6
02/05 22:30 8.2 97 8.13 7.8 57 65 1001.1 10 18.9 26.3 40.1 105.5 98.2 337.1
02/05 22:20 8.3 97 8.18 7.9 59 65 1000.9 10 19.0 26.4 40.3 105.9 98.7 339.0
02/05 22:10 8.4 97 8.23 8 63 70 1000.8 10 19.1 26.4 40.5 106.3 99.3 341.0
02/05 22:00 8.4 96 8.15 7.8 59 67 1000.6 10 18.9 26.3 40.1 105.4 98.2 337.1
02/05 21:50 8.5 97 8.28 8.1 59 69 1000.5 10 19.2 26.4 40.6 106.7 99.8 342.9
02/05 21:40 8.6 96 8.25 8 65 70 1000.6 10 19.1 26.4 40.4 106.3 99.3 341.0
02/05 21:30 8.6 97 8.34 8.2 57 63 1000.3 10 19.3 26.5 40.8 107.3 100.5 345.3
02/05 21:20 8.7 97 8.39 8.3 57 69 1000.3 10 19.4 26.6 41.0 107.7 101.1 347.3
02/05 21:10 8.6 97 8.34 8.2 52 59 1000.3 10 19.3 26.5 40.8 107.3 100.5 345.3
02/05 21:00 8.7 97 8.39 8.3 50 61 1000.4 10 19.4 26.6 41.0 107.7 101.1 347.4
02/05 20:50 8.8 97 8.45 8.4 54 63 1000.4 10 19.5 26.6 41.2 108.2 101.8 349.8
02/05 20:40 8.8 97 8.45 8.4 56 69 1000.4 10 19.5 26.6 41.2 108.2 101.8 349.8
02/05 20:30 8.7 97 8.39 8.3 52 67 1000.5 10 19.4 26.6 41.0 107.7 101.1 347.4
02/05 20:20 8.8 97 8.45 8.4 56 72 1000.4 10 19.5 26.6 41.2 108.2 101.8 349.8
02/05 20:10 8.8 97 8.45 8.4 57 72 1000.4 9.8 19.5 26.6 41.2 108.2 101.8 349.8
02/05 20:00 8.7 97 8.39 8.3 57 67 1000.5 9.8 19.4 26.6 41.0 107.7 101.1 347.4
02/05 19:50 8.8 97 8.45 8.4 56 70 1000.6 9.8 19.5 26.6 41.2 108.3 101.8 349.9
02/05 19:40 8.4 98 8.32 8.1 59 65 1000.7 9.8 19.3 26.6 40.8 107.3 100.5 345.4
02/05 19:30 8.3 97 8.18 7.9 54 59 1000.8 9.8 19.0 26.3 40.3 105.9 98.7 339.0
02/05 19:20 8.1 97 8.07 7.7 52 57 1000.9 9.6 18.7 26.2 39.9 105.0 97.5 334.6
02/05 19:10 8 98 8.11 7.7 48 56 1001.2 9.6 18.8 26.3 40.2 105.6 98.2 337.0
02/05 19:00 7.9 98 8.05 7.6 44 48 1001.5 9.6 18.7 26.3 40.0 105.1 97.5 334.6
02/05 18:50 7.8 97 7.92 7.4 46 50 1001.7 9.4 18.4 26.1 39.5 103.8 95.8 328.8
02/05 18:40 7.8 98 8 7.5 44 48 1002.2 8.8 18.6 26.2 39.9 104.7 97.0 332.8
02/05 18:30 7.5 97 7.77 7.1 39 44 1002.8 7.6 18.1 26.0 39.1 102.6 94.2 323.1
02/05 18:20 7.4 96 7.64 6.8 35 41 1003.3 7 17.8 25.8 38.6 101.3 92.6 317.3
02/05 18:10 7.3 96 7.59 6.7 48 56 1003.7 6.2 17.7 25.8 38.4 100.9 92.0 315.4
02/05 18:00 7.1 95 7.41 6.4 43 57 1004.2 5.6 17.3 25.5 37.8 99.2 89.8 307.6
02/05 17:50 7 95 7.36 6.3 24 43 1004.8 5.2 17.2 25.5 37.7 98.8 89.3 305.8
02/05 17:40 6.8 95 7.27 6.1 26 39 1005.5 5 17.1 25.4 37.4 98.2 88.3 302.4
02/05 17:30 6.7 95 7.22 6 15 24 1006 4.2 17.0 25.4 37.3 97.8 87.8 300.5
02/05 17:20 6.6 95 7.18 5.9 15 22 1006.2 3.4 16.9 25.4 37.2 97.5 87.4 299.0
02/05 17:10 6.5 95 7.13 5.8 17 26 1006.6 2.8 16.8 25.3 37.0 97.1 86.8 297.1
02/05 17:00 6.4 95 7.08 5.7 7 9 1007.1 2.6 16.7 25.3 36.9 96.7 86.3 295.2

Last Refresh: 03-May-2026 08:58:06

Bureau of Meteorology